Allendale, Massachusetts
Current Conditions -  °F | °C
As of 2:04 PM on Sunday 21 Dec 2014 (Local Time) from KPSF Reporting Station
Overcast Overcast  
Wind Chill: 31°   Ceiling: 2300
Heat Index: 31°   Visibility: 10mi
Dew Point: 27°   Wind: 0mph
Humidity: 85%   Direction: NA
Pressure: 30.23"   Gusts: NA
Location:  42.4608°N, 73.282°W
Report Text: KPSF 211904Z AUTO 00000KT 10SM FEW008 BKN023 OVC031 M01/M03 A3023 RMK AO2 T10061028
Loading
Personal Weather Stations






























Interactive Weather Map New forecast layout! Learn more

10-Day Weather Forecast

Advertisements
Track Severe Weather on mobile